createdAt,value
2023-07-07T00:01:47.560Z,15.90
2023-07-07T00:04:20.589Z,15.90
2023-07-07T00:06:53.507Z,15.80
2023-07-07T00:09:24.457Z,15.80
2023-07-07T00:11:56.855Z,15.90
2023-07-07T00:14:27.814Z,15.90
2023-07-07T00:17:03.837Z,15.80
2023-07-07T00:19:35.285Z,15.80
2023-07-07T00:22:09.048Z,15.80
2023-07-07T00:24:41.614Z,15.80
2023-07-07T00:27:11.163Z,15.80
2023-07-07T00:29:39.936Z,15.90
2023-07-07T00:32:10.461Z,15.90
2023-07-07T00:34:42.543Z,15.80
2023-07-07T00:37:12.206Z,15.70
2023-07-07T00:39:43.516Z,15.70
2023-07-07T00:42:16.791Z,15.70
2023-07-07T00:45:22.530Z,15.70
2023-07-07T00:48:12.364Z,15.70
2023-07-07T00:50:53.039Z,15.60
2023-07-07T00:53:20.866Z,15.60
2023-07-07T00:55:59.500Z,15.60
2023-07-07T00:58:33.594Z,15.50
2023-07-07T01:01:15.704Z,15.50
2023-07-07T01:04:08.439Z,15.40
2023-07-07T01:06:45.533Z,15.40
2023-07-07T01:09:16.639Z,15.30
2023-07-07T01:11:51.006Z,15.30
2023-07-07T01:14:36.400Z,15.30
2023-07-07T01:17:33.573Z,15.30
2023-07-07T01:20:26.334Z,15.30
2023-07-07T01:23:17.442Z,15.40
2023-07-07T01:26:33.601Z,15.40
2023-07-07T01:29:32.533Z,15.40
2023-07-07T01:32:28.489Z,15.40
2023-07-07T01:34:58.997Z,15.30
2023-07-07T01:37:30.814Z,15.30
2023-07-07T01:40:03.581Z,15.40
2023-07-07T01:42:53.714Z,15.40
2023-07-07T01:46:05.687Z,15.40
2023-07-07T01:49:11.686Z,15.40
2023-07-07T01:52:11.185Z,15.30
2023-07-07T01:54:47.559Z,15.40
2023-07-07T01:57:17.877Z,15.30
2023-07-07T01:59:47.726Z,15.30
2023-07-07T02:02:18.438Z,15.30
2023-07-07T02:04:48.473Z,15.20
2023-07-07T02:07:18.207Z,15.20
2023-07-07T02:09:49.935Z,15.20
2023-07-07T02:12:20.358Z,15.20
2023-07-07T02:14:51.466Z,15.20
2023-07-07T02:17:33.355Z,15.10
2023-07-07T02:20:12.103Z,15.10
2023-07-07T02:22:49.498Z,15.10
2023-07-07T02:25:20.449Z,15.10
2023-07-07T02:27:50.550Z,15.00
2023-07-07T02:30:22.736Z,15.10
2023-07-07T02:32:54.266Z,15.10
2023-07-07T02:35:25.458Z,15.10
2023-07-07T02:38:00.156Z,15.10
2023-07-07T02:40:34.184Z,15.10
2023-07-07T02:43:07.337Z,15.00
2023-07-07T02:45:38.708Z,15.00
2023-07-07T02:48:08.880Z,14.90
2023-07-07T02:50:40.619Z,15.00
2023-07-07T02:53:10.611Z,15.00
2023-07-07T02:55:46.063Z,15.00
2023-07-07T02:58:23.882Z,14.90
2023-07-07T03:00:53.331Z,14.90
2023-07-07T03:03:30.751Z,14.80
2023-07-07T03:06:07.753Z,14.90
2023-07-07T03:08:41.553Z,14.90
2023-07-07T03:11:18.686Z,14.90
2023-07-07T03:13:58.486Z,14.80
2023-07-07T03:16:34.192Z,14.80
2023-07-07T03:19:15.122Z,14.80
2023-07-07T03:22:14.130Z,14.70
2023-07-07T03:25:14.852Z,14.80
2023-07-07T03:27:49.863Z,14.70
2023-07-07T03:30:45.318Z,14.70
2023-07-07T03:33:38.420Z,14.60
2023-07-07T03:36:08.379Z,14.60
2023-07-07T03:38:38.692Z,14.60
2023-07-07T03:41:21.023Z,14.60
2023-07-07T03:43:50.850Z,14.60
2023-07-07T03:46:28.409Z,14.70
2023-07-07T03:49:08.809Z,14.70
2023-07-07T03:51:49.578Z,14.70
2023-07-07T03:54:18.660Z,14.70
2023-07-07T03:56:51.776Z,14.80
2023-07-07T03:59:25.305Z,14.80
2023-07-07T04:02:02.630Z,14.90
2023-07-07T04:04:31.689Z,14.80
2023-07-07T04:07:03.594Z,14.90
2023-07-07T04:09:34.654Z,14.80
2023-07-07T04:12:08.841Z,14.90
2023-07-07T04:14:38.754Z,14.90
2023-07-07T04:17:10.403Z,15.00
2023-07-07T04:19:40.539Z,15.00
2023-07-07T04:22:11.260Z,15.10
2023-07-07T04:24:41.352Z,15.10
2023-07-07T04:27:11.630Z,15.20
2023-07-07T04:29:44.530Z,15.20
2023-07-07T04:32:13.449Z,15.20
2023-07-07T04:34:45.836Z,15.20
2023-07-07T04:37:16.588Z,15.30
2023-07-07T04:39:50.888Z,15.20
2023-07-07T04:42:20.614Z,15.30
2023-07-07T04:45:08.205Z,15.30
2023-07-07T04:47:38.331Z,15.40
2023-07-07T04:50:25.306Z,15.50
2023-07-07T04:52:55.397Z,15.60
2023-07-07T04:55:39.978Z,15.70
2023-07-07T04:58:13.664Z,15.80
2023-07-07T05:00:42.690Z,15.90
2023-07-07T05:03:12.347Z,16.00
2023-07-07T05:05:43.471Z,16.10
2023-07-07T05:08:14.601Z,16.20
2023-07-07T05:10:49.936Z,16.20
2023-07-07T05:13:21.798Z,16.30
2023-07-07T05:16:13.244Z,16.40
2023-07-07T05:18:45.665Z,16.50
2023-07-07T05:21:18.926Z,16.60
2023-07-07T05:23:51.684Z,16.70
2023-07-07T05:26:30.336Z,16.80
2023-07-07T05:29:03.970Z,16.90
2023-07-07T05:31:33.530Z,17.00
2023-07-07T05:34:01.801Z,17.30
2023-07-07T05:36:31.295Z,17.40
2023-07-07T05:39:02.241Z,17.40
2023-07-07T05:41:32.887Z,17.50
2023-07-07T05:44:01.940Z,17.60
2023-07-07T05:46:34.917Z,17.70
2023-07-07T05:49:06.887Z,17.80
2023-07-07T05:51:43.120Z,17.90
2023-07-07T05:54:13.862Z,18.00
2023-07-07T05:56:44.550Z,18.10
2023-07-07T05:59:17.683Z,18.20
2023-07-07T06:01:49.845Z,18.40
2023-07-07T06:04:20.717Z,18.50
2023-07-07T06:06:49.373Z,18.60
2023-07-07T06:09:23.180Z,18.80
2023-07-07T06:11:55.738Z,19.00
2023-07-07T06:14:28.414Z,19.10
2023-07-07T06:17:00.394Z,19.20
2023-07-07T06:19:30.141Z,19.40
2023-07-07T06:22:01.555Z,19.60
2023-07-07T06:24:33.721Z,19.70
2023-07-07T06:27:06.696Z,19.80
2023-07-07T06:29:39.772Z,19.90
2023-07-07T06:32:12.360Z,20.00
2023-07-07T06:34:45.316Z,20.10
2023-07-07T06:37:19.857Z,20.20
2023-07-07T06:39:51.464Z,20.40
2023-07-07T06:42:20.617Z,20.40
2023-07-07T06:45:06.173Z,20.50
2023-07-07T06:47:37.533Z,20.60
2023-07-07T06:50:08.947Z,20.70
2023-07-07T06:52:40.424Z,20.80
2023-07-07T06:55:08.100Z,20.90
2023-07-07T06:57:37.422Z,21.00
2023-07-07T07:00:17.106Z,21.10
2023-07-07T07:02:46.698Z,21.10
2023-07-07T07:05:16.589Z,21.20
2023-07-07T07:07:44.788Z,21.30
2023-07-07T07:10:20.521Z,21.40
2023-07-07T07:12:52.989Z,21.50
2023-07-07T07:15:26.388Z,21.70
2023-07-07T07:17:58.505Z,21.80
2023-07-07T07:20:31.621Z,22.00
2023-07-07T07:23:04.986Z,22.10
2023-07-07T07:25:38.378Z,22.30
2023-07-07T07:28:10.453Z,22.40
2023-07-07T07:30:40.246Z,22.50
2023-07-07T07:33:23.523Z,22.60
2023-07-07T07:35:52.312Z,22.70
2023-07-07T07:38:24.512Z,22.90
2023-07-07T07:40:57.830Z,23.10
2023-07-07T07:43:32.204Z,23.20
2023-07-07T07:46:02.579Z,23.40
2023-07-07T07:48:34.617Z,23.50
2023-07-07T07:51:13.637Z,23.60
2023-07-07T07:53:52.802Z,23.80
2023-07-07T07:56:23.456Z,23.90
2023-07-07T07:58:54.523Z,24.00
2023-07-07T08:01:23.904Z,24.10
2023-07-07T08:04:08.324Z,24.20
2023-07-07T08:06:39.786Z,24.30
2023-07-07T08:09:09.536Z,24.30
2023-07-07T08:11:55.179Z,24.40
2023-07-07T08:14:34.690Z,24.50
2023-07-07T08:17:11.395Z,24.60
2023-07-07T08:19:44.808Z,24.60
2023-07-07T08:22:29.206Z,24.60
2023-07-07T08:24:58.762Z,24.60
2023-07-07T08:30:00.440Z,24.70
2023-07-07T08:32:32.734Z,24.60
2023-07-07T08:35:00.995Z,24.70
2023-07-07T08:37:31.164Z,24.80
2023-07-07T08:39:58.448Z,24.80
2023-07-07T08:42:49.424Z,24.80
2023-07-07T08:48:47.237Z,24.90
2023-07-07T08:51:46.166Z,25.00
2023-07-07T08:54:20.618Z,25.00
2023-07-07T08:57:17.945Z,25.20
2023-07-07T09:00:13.654Z,25.20
2023-07-07T09:03:10.683Z,25.20
2023-07-07T09:06:09.690Z,25.30
2023-07-07T09:09:11.224Z,25.30
2023-07-07T09:12:05.877Z,25.30
2023-07-07T09:14:35.174Z,25.20
2023-07-07T09:17:22.692Z,25.30
2023-07-07T09:19:55.766Z,25.50
2023-07-07T09:22:51.500Z,25.40
2023-07-07T09:25:49.082Z,25.50
2023-07-07T09:28:29.412Z,25.40
2023-07-07T09:31:33.607Z,25.50
2023-07-07T09:34:04.094Z,25.50
2023-07-07T09:37:04.430Z,25.60
2023-07-07T09:39:59.895Z,25.70
2023-07-07T09:42:59.665Z,25.80
2023-07-07T09:45:53.397Z,25.80
2023-07-07T09:48:55.938Z,25.80
2023-07-07T09:51:44.525Z,25.90
2023-07-07T09:54:22.220Z,26.00
2023-07-07T09:57:26.200Z,26.00
2023-07-07T09:59:57.821Z,26.00
2023-07-07T10:02:28.710Z,26.10
2023-07-07T10:07:53.543Z,26.30
2023-07-07T10:10:27.401Z,26.40
2023-07-07T10:12:58.389Z,26.40
2023-07-07T10:16:10.149Z,26.50
2023-07-07T10:18:53.281Z,26.50
2023-07-07T10:21:27.845Z,26.50
2023-07-07T10:23:58.708Z,26.70
2023-07-07T10:26:30.134Z,26.60
2023-07-07T10:29:06.155Z,26.70
2023-07-07T10:31:44.979Z,26.80
2023-07-07T10:34:40.841Z,26.90
2023-07-07T10:37:31.303Z,27.00
2023-07-07T10:40:09.186Z,27.00
2023-07-07T10:42:41.149Z,27.10
2023-07-07T10:45:17.708Z,27.10
2023-07-07T10:47:48.942Z,27.10
2023-07-07T10:50:26.523Z,27.20
2023-07-07T10:53:23.585Z,27.20
2023-07-07T10:56:22.122Z,27.30
2023-07-07T10:59:32.549Z,27.30
2023-07-07T11:02:24.082Z,27.40
2023-07-07T11:05:25.160Z,27.50
2023-07-07T11:08:34.625Z,27.50
2023-07-07T11:11:30.187Z,27.40
2023-07-07T11:14:37.477Z,27.30
2023-07-07T11:17:39.503Z,27.30
2023-07-07T11:20:31.867Z,27.20
2023-07-07T11:23:33.501Z,27.20
2023-07-07T11:26:24.391Z,27.40
2023-07-07T11:29:33.458Z,27.30
2023-07-07T11:32:33.384Z,27.40
2023-07-07T11:35:36.902Z,27.40
2023-07-07T11:38:44.590Z,27.50
2023-07-07T11:41:44.429Z,27.50
2023-07-07T11:44:51.517Z,27.70
2023-07-07T11:47:52.722Z,27.70
2023-07-07T11:50:49.580Z,27.50
2023-07-07T11:53:51.001Z,27.50
2023-07-07T11:56:39.999Z,27.60
2023-07-07T11:59:50.416Z,27.60
2023-07-07T12:02:43.076Z,27.70
2023-07-07T12:05:15.644Z,27.80
2023-07-07T12:07:52.056Z,27.80
2023-07-07T12:10:42.700Z,27.80
2023-07-07T12:14:00.362Z,27.90
2023-07-07T12:16:35.562Z,28.00
2023-07-07T12:19:43.401Z,28.10
2023-07-07T12:22:22.377Z,28.10
2023-07-07T12:25:38.493Z,28.20
2023-07-07T12:28:13.036Z,27.90
2023-07-07T12:31:01.335Z,28.00
2023-07-07T12:33:42.671Z,28.00
2023-07-07T12:36:17.386Z,28.20
2023-07-07T12:38:53.346Z,28.20
2023-07-07T12:41:29.216Z,28.20
2023-07-07T12:44:03.746Z,28.10
2023-07-07T12:46:36.952Z,27.90
2023-07-07T12:49:26.910Z,27.90
2023-07-07T12:52:00.645Z,28.10
2023-07-07T12:54:39.773Z,28.10
2023-07-07T12:57:42.478Z,28.10
2023-07-07T13:00:34.151Z,28.20
2023-07-07T13:03:15.590Z,28.30
2023-07-07T13:06:05.476Z,28.30
2023-07-07T13:08:55.740Z,28.20
2023-07-07T13:16:23.330Z,27.70
2023-07-07T13:18:56.501Z,27.70
2023-07-07T13:21:36.780Z,27.90
2023-07-07T13:24:08.455Z,27.90
2023-07-07T13:26:38.498Z,28.00
2023-07-07T13:29:12.001Z,28.00
2023-07-07T13:31:48.009Z,28.00
2023-07-07T13:34:22.296Z,28.10
2023-07-07T13:36:52.455Z,28.10
2023-07-07T13:39:25.456Z,28.10
2023-07-07T13:42:00.032Z,28.00
2023-07-07T13:44:31.617Z,28.00
2023-07-07T13:47:19.355Z,28.00
2023-07-07T13:49:49.377Z,28.00
2023-07-07T13:52:23.267Z,28.00
2023-07-07T13:54:54.211Z,28.00
2023-07-07T13:57:31.124Z,28.10
2023-07-07T14:00:22.410Z,28.10
2023-07-07T14:02:55.056Z,28.10
2023-07-07T14:05:29.629Z,28.10
2023-07-07T14:08:00.454Z,28.10
2023-07-07T14:10:52.768Z,28.10
2023-07-07T14:13:30.459Z,28.00
2023-07-07T14:16:19.150Z,28.00
2023-07-07T14:18:56.209Z,28.00
2023-07-07T14:21:31.033Z,27.90
2023-07-07T14:24:13.209Z,27.90
2023-07-07T14:26:45.849Z,27.80
2023-07-07T14:29:47.714Z,27.80
2023-07-07T14:32:54.527Z,27.80
2023-07-07T14:35:50.872Z,27.80
2023-07-07T14:38:40.906Z,27.90
2023-07-07T14:41:20.486Z,27.80
2023-07-07T14:43:48.271Z,27.70
2023-07-07T14:46:38.284Z,27.80
2023-07-07T14:49:20.317Z,27.80
2023-07-07T14:51:55.827Z,27.80
2023-07-07T14:54:30.794Z,27.90
2023-07-07T14:57:17.686Z,27.80
2023-07-07T14:59:47.639Z,27.80
2023-07-07T15:02:41.835Z,27.70
2023-07-07T15:05:48.389Z,27.70
2023-07-07T15:08:32.976Z,27.60
2023-07-07T15:11:13.480Z,27.60
2023-07-07T15:13:47.136Z,27.50
2023-07-07T15:16:20.813Z,27.50
2023-07-07T15:19:02.571Z,27.50
2023-07-07T15:21:33.444Z,27.40
2023-07-07T15:24:02.486Z,27.30
2023-07-07T15:26:35.887Z,27.30
2023-07-07T15:29:14.788Z,27.20
2023-07-07T15:31:46.602Z,27.20
2023-07-07T15:34:20.115Z,27.20
2023-07-07T15:36:54.622Z,27.20
2023-07-07T15:39:25.690Z,27.20
2023-07-07T15:41:57.020Z,27.20
2023-07-07T15:44:28.105Z,27.20
2023-07-07T15:47:01.392Z,27.10
2023-07-07T15:49:31.398Z,27.10
2023-07-07T15:52:02.447Z,27.10
2023-07-07T15:54:30.780Z,27.00
2023-07-07T15:57:03.054Z,27.00
2023-07-07T15:59:45.017Z,27.00
2023-07-07T16:02:22.243Z,27.00
2023-07-07T16:04:55.987Z,26.90
2023-07-07T16:07:24.441Z,26.90
2023-07-07T16:09:56.804Z,26.90
2023-07-07T16:12:29.470Z,26.90
2023-07-07T16:15:00.161Z,26.90
2023-07-07T16:17:29.737Z,26.90
2023-07-07T16:20:09.436Z,26.90
2023-07-07T16:22:57.867Z,26.80
2023-07-07T16:25:32.302Z,26.70
2023-07-07T16:28:06.275Z,26.60
2023-07-07T16:30:39.193Z,26.60
2023-07-07T16:33:07.710Z,26.60
2023-07-07T16:35:41.638Z,26.60
2023-07-07T16:38:12.654Z,26.50
2023-07-07T16:40:48.110Z,26.50
2023-07-07T16:43:20.531Z,26.50
2023-07-07T16:45:51.791Z,26.40
2023-07-07T16:48:21.803Z,26.40
2023-07-07T16:50:57.031Z,26.40
2023-07-07T16:53:25.225Z,26.30
2023-07-07T16:55:54.742Z,26.20
2023-07-07T16:58:25.826Z,26.20
2023-07-07T17:00:54.721Z,26.20
2023-07-07T17:03:26.861Z,26.10
2023-07-07T17:05:57.402Z,26.00
2023-07-07T17:08:27.490Z,26.00
2023-07-07T17:10:56.131Z,26.00
2023-07-07T17:13:29.818Z,26.00
2023-07-07T17:16:02.031Z,25.90
2023-07-07T17:18:33.864Z,25.80
2023-07-07T17:21:03.675Z,25.80
2023-07-07T17:23:32.136Z,25.80
2023-07-07T17:26:00.994Z,25.70
2023-07-07T17:28:33.192Z,25.60
2023-07-07T17:31:08.849Z,25.50
2023-07-07T17:33:39.883Z,25.50
2023-07-07T17:36:31.984Z,25.40
2023-07-07T17:39:00.876Z,25.40
2023-07-07T17:41:35.047Z,25.30
2023-07-07T17:44:06.994Z,25.20
2023-07-07T17:46:43.722Z,25.10
2023-07-07T17:49:33.531Z,25.00
2023-07-07T17:52:03.246Z,24.90
2023-07-07T17:54:38.673Z,24.90
2023-07-07T17:57:18.911Z,24.80
2023-07-07T17:59:45.989Z,24.70
2023-07-07T18:02:22.023Z,24.60
2023-07-07T18:04:53.454Z,24.50
2023-07-07T18:07:26.282Z,24.50
2023-07-07T18:09:57.300Z,24.40
2023-07-07T18:12:29.798Z,24.30
2023-07-07T18:15:02.565Z,24.30
2023-07-07T18:17:50.361Z,24.20
2023-07-07T18:21:24.986Z,24.10
2023-07-07T18:23:36.695Z,24.00
2023-07-07T18:26:08.251Z,23.90
2023-07-07T18:28:38.751Z,23.80
2023-07-07T18:31:12.313Z,23.60
2023-07-07T18:33:45.133Z,23.50
2023-07-07T18:38:51.028Z,23.30
2023-07-07T18:41:20.400Z,23.20
2023-07-07T18:43:50.620Z,23.10
2023-07-07T18:46:27.281Z,23.00
2023-07-07T18:49:05.173Z,22.90
2023-07-07T18:51:37.119Z,22.80
2023-07-07T18:54:11.405Z,22.80
2023-07-07T18:56:52.718Z,22.70
2023-07-07T18:59:25.814Z,22.50
2023-07-07T19:01:58.775Z,22.30
2023-07-07T19:04:26.724Z,22.30
2023-07-07T19:06:54.308Z,22.20
2023-07-07T19:09:25.866Z,22.10
2023-07-07T19:11:57.982Z,22.00
2023-07-07T19:14:27.983Z,22.00
2023-07-07T19:16:56.854Z,21.90
2023-07-07T19:19:29.389Z,21.80
2023-07-07T19:22:03.793Z,21.70
2023-07-07T19:24:36.128Z,21.50
2023-07-07T19:27:05.255Z,21.40
2023-07-07T19:29:46.610Z,21.30
2023-07-07T19:32:20.069Z,21.30
2023-07-07T19:34:58.872Z,21.20
2023-07-07T19:37:34.691Z,21.00
2023-07-07T19:40:03.888Z,20.80
2023-07-07T19:42:38.156Z,20.80
2023-07-07T19:45:11.700Z,20.80
2023-07-07T19:47:44.351Z,20.70
2023-07-07T19:50:27.123Z,20.60
2023-07-07T19:52:55.972Z,20.50
2023-07-07T19:55:35.810Z,20.50
2023-07-07T19:58:17.875Z,20.40
2023-07-07T20:00:51.654Z,20.30
2023-07-07T20:03:23.525Z,20.10
2023-07-07T20:05:57.303Z,20.10
2023-07-07T20:08:37.319Z,20.10
2023-07-07T20:11:31.950Z,19.90
2023-07-07T20:14:05.155Z,19.90
2023-07-07T20:16:36.960Z,19.80
2023-07-07T20:19:17.407Z,19.80
2023-07-07T20:21:46.688Z,19.80
2023-07-07T20:24:28.151Z,19.70
2023-07-07T20:27:13.360Z,19.50
2023-07-07T20:29:45.389Z,19.50
2023-07-07T20:32:18.588Z,19.40
2023-07-07T20:34:51.306Z,19.30
2023-07-07T20:37:25.957Z,19.30
2023-07-07T20:39:55.281Z,19.30
2023-07-07T20:42:30.332Z,19.30
2023-07-07T20:45:06.122Z,19.20
2023-07-07T20:47:37.695Z,19.10
2023-07-07T20:50:34.455Z,19.00
2023-07-07T20:53:06.991Z,18.90
2023-07-07T20:55:35.540Z,18.80
2023-07-07T20:58:12.533Z,18.80
2023-07-07T21:00:48.839Z,18.90
2023-07-07T21:03:19.867Z,18.80
2023-07-07T21:05:51.557Z,18.80
2023-07-07T21:08:24.875Z,18.80
2023-07-07T21:10:53.187Z,18.70
2023-07-07T21:13:29.726Z,18.60
2023-07-07T21:16:02.906Z,18.60
2023-07-07T21:18:33.290Z,18.50
2023-07-07T21:21:05.819Z,18.50
2023-07-07T21:23:37.047Z,18.30
2023-07-07T21:26:15.793Z,18.30
2023-07-07T21:28:46.877Z,18.20
2023-07-07T21:31:42.691Z,18.10
2023-07-07T21:34:13.801Z,18.10
2023-07-07T21:36:42.754Z,18.10
2023-07-07T21:39:34.559Z,18.00
2023-07-07T21:42:16.273Z,18.00
2023-07-07T21:44:50.196Z,18.00
2023-07-07T21:47:22.455Z,18.00
2023-07-07T21:49:58.397Z,18.00
2023-07-07T21:52:32.811Z,17.90
2023-07-07T21:55:11.367Z,17.80
2023-07-07T21:57:52.755Z,17.80
2023-07-07T22:00:35.707Z,17.70
2023-07-07T22:03:19.041Z,17.80
2023-07-07T22:05:50.999Z,17.70
2023-07-07T22:08:18.745Z,17.70
2023-07-07T22:11:09.997Z,17.60
2023-07-07T22:13:37.001Z,17.60
2023-07-07T22:16:18.399Z,17.60
2023-07-07T22:18:54.946Z,17.60
2023-07-07T22:21:28.928Z,17.60
2023-07-07T22:23:59.152Z,17.50
2023-07-07T22:26:28.468Z,17.60
2023-07-07T22:28:57.874Z,17.50
2023-07-07T22:31:33.273Z,17.50
2023-07-07T22:34:04.021Z,17.50
2023-07-07T22:36:39.655Z,17.40
2023-07-07T22:39:17.277Z,17.30
2023-07-07T22:41:49.244Z,17.30
2023-07-07T22:44:17.176Z,17.30
2023-07-07T22:46:46.588Z,17.20
2023-07-07T22:49:20.303Z,17.10
2023-07-07T22:51:52.641Z,17.10
2023-07-07T22:54:23.845Z,17.10
2023-07-07T22:56:54.487Z,17.10
2023-07-07T22:59:25.356Z,17.00
2023-07-07T23:01:55.956Z,17.00
2023-07-07T23:04:31.757Z,16.90
2023-07-07T23:07:04.527Z,16.90
2023-07-07T23:10:02.118Z,16.90
2023-07-07T23:12:32.530Z,16.90
2023-07-07T23:15:04.543Z,16.80
2023-07-07T23:17:36.608Z,16.80
2023-07-07T23:20:27.650Z,16.90
2023-07-07T23:23:15.734Z,16.80
2023-07-07T23:25:46.703Z,16.80
2023-07-07T23:28:14.391Z,16.70
2023-07-07T23:31:08.112Z,16.70
2023-07-07T23:33:43.977Z,16.60
2023-07-07T23:36:36.056Z,16.70
2023-07-07T23:39:12.761Z,16.60
2023-07-07T23:41:48.589Z,16.60
2023-07-07T23:47:02.410Z,16.60
2023-07-07T23:49:34.315Z,16.50
2023-07-07T23:52:06.397Z,16.50
2023-07-07T23:54:38.561Z,16.50
2023-07-07T23:57:22.912Z,16.40
2023-07-07T23:59:54.070Z,16.30
